createdAt,value
2022-08-10T00:00:32.388Z,98798.63
2022-08-10T00:02:36.567Z,98800.47
2022-08-10T00:04:39.628Z,98793.63
2022-08-10T00:06:42.703Z,98813.59
2022-08-10T00:08:46.201Z,98804.25
2022-08-10T00:10:49.252Z,98806.91
2022-08-10T00:12:55.220Z,98807.25
2022-08-10T00:15:00.072Z,98805.41
2022-08-10T00:17:03.140Z,98810.22
2022-08-10T00:19:06.296Z,98803.94
2022-08-10T00:21:10.106Z,98804.25
2022-08-10T00:23:13.536Z,98805.56
2022-08-10T00:25:16.576Z,98805.88
2022-08-10T00:27:52.230Z,98800.72
2022-08-10T00:29:43.996Z,98810.84
2022-08-10T00:31:58.114Z,98802.38
2022-08-10T00:34:02.495Z,98806.84
2022-08-10T00:36:05.844Z,98799.50
2022-08-10T00:38:08.852Z,98797.69
2022-08-10T00:40:13.136Z,98797.00
2022-08-10T00:42:16.987Z,98796.19
2022-08-10T00:44:20.320Z,98796.81
2022-08-10T00:46:26.800Z,98793.66
2022-08-10T00:48:30.611Z,98792.63
2022-08-10T00:50:34.249Z,98790.28
2022-08-10T00:52:38.545Z,98788.28
2022-08-10T00:54:43.122Z,98786.66
2022-08-10T00:57:17.847Z,98790.59
2022-08-10T00:59:09.213Z,98796.91
2022-08-10T01:02:09.109Z,98794.44
2022-08-10T01:04:57.380Z,98789.72
2022-08-10T01:06:02.970Z,98792.53
2022-08-10T01:08:17.115Z,98788.38
2022-08-10T01:10:28.504Z,98792.31
2022-08-10T01:12:40.698Z,98794.16
2022-08-10T01:14:49.971Z,98795.28
2022-08-10T01:16:57.222Z,98794.78
2022-08-10T01:19:05.787Z,98787.94
2022-08-10T01:21:38.183Z,98785.63
2022-08-10T01:23:59.901Z,98788.13
2022-08-10T01:26:40.636Z,98796.09
2022-08-10T01:28:52.279Z,98799.06
2022-08-10T01:30:57.462Z,98794.75
2022-08-10T01:33:04.701Z,98785.25
2022-08-10T01:35:13.596Z,98784.59
2022-08-10T01:37:19.398Z,98780.41
2022-08-10T01:39:25.249Z,98787.88
2022-08-10T01:41:45.645Z,98791.66
2022-08-10T01:43:55.617Z,98784.56
2022-08-10T01:46:03.156Z,98792.53
2022-08-10T01:48:24.660Z,98800.34
2022-08-10T01:50:31.694Z,98789.16
2022-08-10T01:52:36.791Z,98797.44
2022-08-10T01:54:41.048Z,98795.28
2022-08-10T01:56:46.505Z,98799.75
2022-08-10T01:58:52.479Z,98801.03
2022-08-10T02:00:56.100Z,98804.16
2022-08-10T02:03:03.230Z,98794.00
2022-08-10T02:05:08.209Z,98796.66
2022-08-10T02:07:16.100Z,98798.50
2022-08-10T02:09:22.348Z,98800.78
2022-08-10T02:11:28.827Z,98796.78
2022-08-10T02:13:52.396Z,98811.28
2022-08-10T02:16:01.511Z,98804.66
2022-08-10T02:18:07.833Z,98795.16
2022-08-10T02:20:14.117Z,98789.34
2022-08-10T02:22:37.503Z,98798.44
2022-08-10T02:24:42.591Z,98799.75
2022-08-10T02:26:46.121Z,98801.69
2022-08-10T02:28:49.320Z,98797.00
2022-08-10T02:30:54.696Z,98795.50
2022-08-10T02:33:01.948Z,98793.81
2022-08-10T02:35:19.418Z,98787.44
2022-08-10T02:37:27.303Z,98797.25
2022-08-10T02:39:31.209Z,98795.56
2022-08-10T02:45:02.829Z,98790.56
2022-08-10T02:45:19.339Z,98786.56
2022-08-10T02:46:36.628Z,98800.81
2022-08-10T02:48:43.495Z,98794.38
2022-08-10T02:50:52.117Z,98798.16
2022-08-10T02:53:00.941Z,98793.84
2022-08-10T02:55:17.677Z,98802.13
2022-08-10T02:57:24.757Z,98807.00
2022-08-10T02:59:38.578Z,98798.38
2022-08-10T03:01:46.293Z,98796.56
2022-08-10T03:03:53.315Z,98793.91
2022-08-10T03:06:01.945Z,98785.94
2022-08-10T03:08:07.256Z,98791.41
2022-08-10T03:10:14.713Z,98800.22
2022-08-10T03:12:36.790Z,98798.69
2022-08-10T03:14:41.927Z,98795.72
2022-08-10T03:16:45.583Z,98793.91
2022-08-10T03:18:49.363Z,98796.84
2022-08-10T03:20:52.920Z,98796.19
2022-08-10T03:22:58.107Z,98798.69
2022-08-10T03:25:02.594Z,98804.13
2022-08-10T03:27:06.434Z,98800.81
2022-08-10T03:29:11.139Z,98808.63
2022-08-10T03:31:14.214Z,98811.56
2022-08-10T03:33:18.514Z,98802.38
2022-08-10T03:35:22.145Z,98806.72
2022-08-10T03:37:25.665Z,98811.16
2022-08-10T03:39:30.219Z,98803.22
2022-08-10T03:41:36.560Z,98804.38
2022-08-10T03:43:40.438Z,98798.91
2022-08-10T03:45:55.005Z,98801.72
2022-08-10T03:48:00.104Z,98809.13
2022-08-10T03:50:27.752Z,98801.31
2022-08-10T03:52:28.406Z,98805.09
2022-08-10T03:54:33.418Z,98810.00
2022-08-10T03:56:38.403Z,98796.34
2022-08-10T03:58:41.919Z,98805.97
2022-08-10T04:00:46.353Z,98812.25
2022-08-10T04:02:52.476Z,98811.56
2022-08-10T04:04:56.183Z,98819.53
2022-08-10T04:07:00.761Z,98815.91
2022-08-10T04:09:04.413Z,98820.66
2022-08-10T04:11:08.900Z,98828.44
2022-08-10T04:13:11.909Z,98826.66
2022-08-10T04:15:14.927Z,98825.81
2022-08-10T04:17:18.376Z,98826.81
2022-08-10T04:19:44.013Z,98828.44
2022-08-10T04:21:49.147Z,98825.13
2022-08-10T04:23:53.350Z,98826.09
2022-08-10T04:25:57.149Z,98828.91
2022-08-10T04:28:01.684Z,98821.94
2022-08-10T04:30:07.567Z,98830.72
2022-08-10T04:32:11.266Z,98824.59
2022-08-10T04:34:15.592Z,98828.75
2022-08-10T04:36:19.613Z,98821.66
2022-08-10T04:38:24.165Z,98820.56
2022-08-10T04:40:29.967Z,98821.38
2022-08-10T04:42:34.282Z,98826.97
2022-08-10T04:44:39.110Z,98823.94
2022-08-10T04:46:56.039Z,98836.09
2022-08-10T04:49:02.245Z,98836.91
2022-08-10T04:51:08.012Z,98830.63
2022-08-10T04:53:14.274Z,98824.47
2022-08-10T04:55:17.298Z,98831.47
2022-08-10T04:57:20.395Z,98829.63
2022-08-10T04:59:23.458Z,98834.41
2022-08-10T05:02:21.650Z,98823.66
2022-08-10T05:04:33.765Z,98825.72
2022-08-10T05:06:13.960Z,98838.00
2022-08-10T05:08:17.024Z,98829.59
2022-08-10T05:10:20.048Z,98829.16
2022-08-10T05:12:23.492Z,98839.75
2022-08-10T05:14:26.625Z,98840.28
2022-08-10T05:16:32.431Z,98841.81
2022-08-10T05:18:35.791Z,98838.03
2022-08-10T05:20:38.988Z,98840.94
2022-08-10T05:22:43.599Z,98839.66
2022-08-10T05:24:46.728Z,98842.53
2022-08-10T05:27:00.590Z,98848.78
2022-08-10T05:29:12.782Z,98848.88
2022-08-10T05:31:22.621Z,98848.88
2022-08-10T05:33:28.535Z,98845.91
2022-08-10T05:35:56.462Z,98849.47
2022-08-10T05:38:12.291Z,98849.16
2022-08-10T05:40:17.443Z,98854.31
2022-08-10T05:42:21.671Z,98854.81
2022-08-10T05:44:25.296Z,98865.75
2022-08-10T05:46:28.310Z,98872.13
2022-08-10T05:48:54.461Z,98866.88
2022-08-10T05:50:55.891Z,98871.28
2022-08-10T05:53:03.748Z,98871.97
2022-08-10T05:55:23.679Z,98872.16
2022-08-10T05:57:26.753Z,98872.66
2022-08-10T06:00:33.148Z,98875.25
2022-08-10T06:02:33.531Z,98869.56
2022-08-10T06:04:28.114Z,98871.94
2022-08-10T06:06:33.878Z,98875.88
2022-08-10T06:08:37.593Z,98872.28
2022-08-10T06:12:23.599Z,98870.69
2022-08-10T06:13:30.781Z,98878.66
2022-08-10T06:15:50.594Z,98873.25
2022-08-10T06:18:01.782Z,98883.28
2022-08-10T06:20:07.753Z,98884.09
2022-08-10T06:22:11.835Z,98879.47
2022-08-10T06:24:17.321Z,98880.56
2022-08-10T06:26:21.750Z,98874.22
2022-08-10T06:28:26.797Z,98879.16
2022-08-10T06:30:30.908Z,98880.44
2022-08-10T06:32:34.183Z,98873.47
2022-08-10T06:34:41.015Z,98878.94
2022-08-10T06:36:45.869Z,98881.53
2022-08-10T06:38:49.702Z,98873.41
2022-08-10T06:40:57.026Z,98883.03
2022-08-10T06:43:02.165Z,98873.66
2022-08-10T06:45:08.821Z,98878.66
2022-08-10T06:47:13.175Z,98878.34
2022-08-10T06:49:25.948Z,98882.44
2022-08-10T06:51:33.270Z,98890.19
2022-08-10T06:53:53.012Z,98884.69
2022-08-10T06:56:01.427Z,98886.53
2022-08-10T06:58:04.852Z,98879.63
2022-08-10T07:00:10.179Z,98874.34
2022-08-10T07:02:18.061Z,98876.16
2022-08-10T07:04:32.372Z,98878.81
2022-08-10T07:06:37.600Z,98888.81
2022-08-10T07:08:42.892Z,98882.34
2022-08-10T07:10:46.876Z,98873.06
2022-08-10T07:12:51.905Z,98887.84
2022-08-10T07:14:55.617Z,98880.63
2022-08-10T07:16:59.647Z,98881.84
2022-08-10T07:19:02.965Z,98877.16
2022-08-10T07:21:07.046Z,98880.25
2022-08-10T07:23:56.830Z,98877.78
2022-08-10T07:25:37.569Z,98882.59
2022-08-10T07:27:59.596Z,98871.16
2022-08-10T07:30:05.164Z,98880.69
2022-08-10T07:32:09.289Z,98876.59
2022-08-10T07:34:13.130Z,98871.09
2022-08-10T07:36:32.565Z,98882.38
2022-08-10T07:38:37.310Z,98877.03
2022-08-10T07:40:41.985Z,98882.00
2022-08-10T07:42:46.336Z,98876.75
2022-08-10T07:44:50.574Z,98869.72
2022-08-10T07:46:55.498Z,98879.44
2022-08-10T07:49:01.461Z,98869.47
2022-08-10T07:51:04.803Z,98874.59
2022-08-10T07:53:11.102Z,98873.38
2022-08-10T07:55:16.704Z,98868.47
2022-08-10T07:57:31.845Z,98867.09
2022-08-10T07:59:39.127Z,98875.59
2022-08-10T08:01:44.278Z,98863.63
2022-08-10T08:04:04.985Z,98870.03
2022-08-10T08:06:12.653Z,98860.72
2022-08-10T08:08:16.701Z,98862.81
2022-08-10T08:10:20.596Z,98855.97
2022-08-10T08:12:25.644Z,98863.00
2022-08-10T08:14:28.901Z,98859.91
2022-08-10T08:16:33.360Z,98856.59
2022-08-10T08:18:37.264Z,98862.81
2022-08-10T08:20:41.115Z,98850.19
2022-08-10T08:24:16.511Z,98859.06
2022-08-10T08:25:13.025Z,98851.59
2022-08-10T08:27:19.693Z,98857.41
2022-08-10T08:29:25.563Z,98878.94
2022-08-10T08:31:29.208Z,98868.16
2022-08-10T08:33:41.166Z,98863.19
2022-08-10T08:35:46.155Z,98866.09
2022-08-10T08:38:32.798Z,98862.19
2022-08-10T08:40:18.055Z,98867.38
2022-08-10T08:42:34.189Z,98859.06
2022-08-10T08:44:49.137Z,98863.84
2022-08-10T08:48:04.465Z,98858.00
2022-08-10T08:50:05.519Z,98857.59
2022-08-10T08:52:24.616Z,98852.66
2022-08-10T08:54:45.927Z,98848.91
2022-08-10T08:56:55.586Z,98854.50
2022-08-10T08:59:10.188Z,98867.34
2022-08-10T09:01:24.853Z,98861.91
2022-08-10T09:03:56.917Z,98852.00
2022-08-10T09:06:08.885Z,98852.63
2022-08-10T09:08:24.002Z,98856.34
2022-08-10T09:10:37.148Z,98849.31
2022-08-10T09:12:46.434Z,98848.88
2022-08-10T09:14:53.980Z,98863.13
2022-08-10T09:17:07.008Z,98866.81
2022-08-10T09:19:35.223Z,98851.91
2022-08-10T09:21:58.624Z,98846.75
2022-08-10T09:24:16.447Z,98838.84
2022-08-10T09:26:23.201Z,98839.47
2022-08-10T09:28:30.054Z,98823.75
2022-08-10T09:30:38.671Z,98846.63
2022-08-10T09:36:16.200Z,98831.91
2022-08-10T09:36:21.267Z,98827.53
2022-08-10T09:38:02.160Z,98829.22
2022-08-10T09:41:00.028Z,98840.59
2022-08-10T09:42:47.197Z,98829.78
2022-08-10T09:45:04.732Z,98828.94
2022-08-10T09:47:21.235Z,98820.44
2022-08-10T09:49:57.073Z,98820.03
2022-08-10T09:52:11.058Z,98817.41
2022-08-10T09:54:22.809Z,98836.66
2022-08-10T09:56:30.883Z,98824.25
2022-08-10T09:58:39.718Z,98817.00
2022-08-10T10:00:47.487Z,98817.63
2022-08-10T10:03:01.482Z,98825.31
2022-08-10T10:05:13.465Z,98814.72
2022-08-10T10:07:26.201Z,98823.44
2022-08-10T10:09:33.346Z,98811.19
2022-08-10T10:11:44.952Z,98818.06
2022-08-10T10:14:03.893Z,98818.06
2022-08-10T10:16:23.480Z,98822.00
2022-08-10T10:18:35.484Z,98804.81
2022-08-10T10:20:43.509Z,98815.78
2022-08-10T10:23:02.915Z,98809.97
2022-08-10T10:25:19.874Z,98809.13
2022-08-10T10:27:30.943Z,98799.19
2022-08-10T10:29:58.203Z,98791.53
2022-08-10T10:32:05.505Z,98786.56
2022-08-10T10:34:15.331Z,98791.53
2022-08-10T10:36:20.646Z,98786.16
2022-08-10T10:38:26.977Z,98787.84
2022-08-10T10:40:35.576Z,98787.00
2022-08-10T10:42:45.835Z,98776.22
2022-08-10T10:44:54.392Z,98777.06
2022-08-10T10:47:06.043Z,98778.50
2022-08-10T10:49:17.556Z,98770.44
2022-08-10T10:51:27.590Z,98773.75
2022-08-10T10:53:36.296Z,98769.81
2022-08-10T10:56:13.294Z,98757.59
2022-08-10T10:58:18.388Z,98765.25
2022-08-10T11:00:25.959Z,98776.25
2022-08-10T11:02:47.217Z,98763.59
2022-08-10T11:04:58.991Z,98763.22
2022-08-10T11:07:10.357Z,98757.22
2022-08-10T11:10:04.726Z,98762.56
2022-08-10T11:12:01.660Z,98770.44
2022-08-10T11:14:27.175Z,98766.31
2022-08-10T11:16:43.224Z,98764.44
2022-08-10T11:19:04.863Z,98762.75
2022-08-10T11:21:25.398Z,98759.63
2022-08-10T11:23:34.424Z,98763.16
2022-08-10T11:25:40.056Z,98767.13
2022-08-10T11:27:49.010Z,98760.94
2022-08-10T11:30:00.316Z,98756.97
2022-08-10T11:32:05.860Z,98748.50
2022-08-10T11:34:47.665Z,98750.75
2022-08-10T11:36:45.205Z,98746.44
2022-08-10T11:39:13.976Z,98750.34
2022-08-10T11:42:07.069Z,98750.78
2022-08-10T11:44:09.529Z,98750.97
2022-08-10T11:46:28.010Z,98746.84
2022-08-10T11:48:53.239Z,98736.94
2022-08-10T11:51:01.296Z,98743.53
2022-08-10T11:53:14.804Z,98740.66
2022-08-10T11:55:21.440Z,98747.25
2022-08-10T11:57:52.930Z,98746.22
2022-08-10T11:59:59.403Z,98742.69
2022-08-10T12:02:03.416Z,98737.53
2022-08-10T12:04:11.880Z,98740.03
2022-08-10T12:06:34.009Z,98745.81
2022-08-10T12:10:05.134Z,98734.84
2022-08-10T12:11:08.817Z,98736.28
2022-08-10T12:13:16.721Z,98736.72
2022-08-10T12:15:24.715Z,98733.81
2022-08-10T12:17:31.327Z,98737.72
2022-08-10T12:20:02.176Z,98722.22
2022-08-10T12:22:06.835Z,98723.88
2022-08-10T12:24:13.120Z,98722.00
2022-08-10T12:26:20.770Z,98714.34
2022-08-10T12:28:49.910Z,98728.63
2022-08-10T12:30:57.693Z,98721.19
2022-08-10T12:33:03.302Z,98729.66
2022-08-10T12:35:17.994Z,98722.22
2022-08-10T12:37:32.522Z,98725.34
2022-08-10T12:39:41.329Z,98721.16
2022-08-10T12:41:53.037Z,98721.78
2022-08-10T12:44:07.896Z,98713.72
2022-08-10T12:46:19.307Z,98704.59
2022-08-10T12:48:31.386Z,98707.94
2022-08-10T12:50:40.544Z,98700.88
2022-08-10T12:52:51.537Z,98695.31
2022-08-10T12:54:54.971Z,98691.34
2022-08-10T12:57:01.838Z,98696.94
2022-08-10T12:59:06.309Z,98694.91
2022-08-10T13:01:17.811Z,98698.19
2022-08-10T13:04:20.781Z,98692.00
2022-08-10T13:06:00.259Z,98705.44
2022-08-10T13:08:28.145Z,98691.34
2022-08-10T13:10:31.456Z,98688.03
2022-08-10T13:12:40.482Z,98696.34
2022-08-10T13:14:49.670Z,98688.06
2022-08-10T13:16:53.261Z,98686.81
2022-08-10T13:18:59.853Z,98668.59
2022-08-10T13:21:19.671Z,98676.03
2022-08-10T13:23:26.703Z,98670.44
2022-08-10T13:25:31.766Z,98674.56
2022-08-10T13:28:00.410Z,98667.78
2022-08-10T13:30:06.730Z,98668.38
2022-08-10T13:32:13.502Z,98653.50
2022-08-10T13:34:43.697Z,98647.88
2022-08-10T13:36:42.667Z,98652.66
2022-08-10T13:38:48.745Z,98653.91
2022-08-10T13:40:53.030Z,98650.81
2022-08-10T13:42:59.592Z,98646.84
2022-08-10T13:45:08.064Z,98645.44
2022-08-10T13:47:14.568Z,98641.88
2022-08-10T13:49:19.402Z,98641.25
2022-08-10T13:51:56.883Z,98647.28
2022-08-10T13:53:49.861Z,98655.94
2022-08-10T13:55:56.865Z,98652.19
2022-08-10T13:58:03.492Z,98652.00
2022-08-10T14:00:37.464Z,98651.53
2022-08-10T14:02:37.479Z,98646.09
2022-08-10T14:04:45.644Z,98641.78
2022-08-10T14:06:54.578Z,98638.25
2022-08-10T14:09:02.282Z,98649.44
2022-08-10T14:11:10.963Z,98646.56
2022-08-10T14:13:18.427Z,98631.31
2022-08-10T14:15:28.797Z,98624.03
2022-08-10T14:17:32.958Z,98624.25
2022-08-10T14:19:43.625Z,98628.34
2022-08-10T14:21:47.497Z,98635.22
2022-08-10T14:23:53.645Z,98624.25
2022-08-10T14:26:03.121Z,98624.25
2022-08-10T14:28:08.648Z,98624.69
2022-08-10T14:30:15.576Z,98612.03
2022-08-10T14:32:20.300Z,98612.47
2022-08-10T14:36:16.501Z,98621.78
2022-08-10T14:36:53.912Z,98616.38
2022-08-10T14:38:57.223Z,98612.06
2022-08-10T14:41:02.227Z,98613.53
2022-08-10T14:43:07.874Z,98608.13
2022-08-10T14:45:20.443Z,98619.13
2022-08-10T14:47:54.230Z,98608.94
2022-08-10T14:49:56.940Z,98601.09
2022-08-10T14:52:03.115Z,98604.41
2022-08-10T14:54:06.618Z,98605.22
2022-08-10T14:56:13.666Z,98599.84
2022-08-10T14:58:21.201Z,98601.13
2022-08-10T15:00:35.356Z,98588.31
2022-08-10T15:02:53.234Z,98589.16
2022-08-10T15:05:01.427Z,98569.72
2022-08-10T15:07:12.327Z,98591.84
2022-08-10T15:09:19.249Z,98591.00
2022-08-10T15:12:11.880Z,98597.41
2022-08-10T15:14:15.183Z,98600.31
2022-08-10T15:16:15.020Z,98598.44
2022-08-10T15:18:18.597Z,98586.03
2022-08-10T15:20:31.291Z,98587.88
2022-08-10T15:22:37.957Z,98587.25
2022-08-10T15:25:01.788Z,98577.50
2022-08-10T15:27:08.738Z,98582.88
2022-08-10T15:29:23.762Z,98580.41
2022-08-10T15:31:33.580Z,98582.72
2022-08-10T15:34:04.588Z,98579.38
2022-08-10T15:36:26.552Z,98575.44
2022-08-10T15:38:34.713Z,98577.72
2022-08-10T15:40:50.771Z,98572.56
2022-08-10T15:42:58.207Z,98571.09
2022-08-10T15:45:01.643Z,98577.53
2022-08-10T15:47:10.623Z,98576.94
2022-08-10T15:49:20.473Z,98572.63
2022-08-10T15:51:32.534Z,98576.31
2022-08-10T15:53:54.784Z,98575.50
2022-08-10T15:56:10.249Z,98563.31
2022-08-10T15:58:30.152Z,98562.69
2022-08-10T16:00:50.933Z,98570.56
2022-08-10T16:02:59.499Z,98562.47
2022-08-10T16:05:08.068Z,98556.47
2022-08-10T16:07:13.749Z,98553.16
2022-08-10T16:10:22.650Z,98559.16
2022-08-10T16:11:46.340Z,98558.53
2022-08-10T16:14:01.172Z,98555.22
2022-08-10T16:16:07.422Z,98561.84
2022-08-10T16:18:14.473Z,98562.88
2022-08-10T16:20:22.791Z,98557.09
2022-08-10T16:22:36.208Z,98539.94
2022-08-10T16:24:42.770Z,98546.13
2022-08-10T16:26:48.167Z,98542.84
2022-08-10T16:29:06.392Z,98540.34
2022-08-10T16:31:15.328Z,98544.06
2022-08-10T16:33:24.457Z,98548.63
2022-08-10T16:35:52.518Z,98544.09
2022-08-10T16:37:59.837Z,98536.66
2022-08-10T16:40:04.332Z,98534.19
2022-08-10T16:42:10.730Z,98543.28
2022-08-10T16:44:14.975Z,98543.09
2022-08-10T16:46:20.088Z,98532.34
2022-08-10T16:48:49.430Z,98534.00
2022-08-10T16:50:53.491Z,98530.25
2022-08-10T16:53:00.237Z,98540.78
2022-08-10T16:55:17.219Z,98534.41
2022-08-10T16:57:29.314Z,98530.28
2022-08-10T16:59:35.563Z,98534.00
2022-08-10T17:01:40.793Z,98529.88
2022-08-10T17:04:08.041Z,98540.84
2022-08-10T17:06:13.623Z,98535.03
2022-08-10T17:08:18.729Z,98530.06
2022-08-10T17:10:22.680Z,98532.38
2022-08-10T17:12:27.479Z,98529.28
2022-08-10T17:14:31.075Z,98523.69
2022-08-10T17:16:35.505Z,98521.00
2022-08-10T17:18:41.088Z,98519.78
2022-08-10T17:20:45.727Z,98521.81
2022-08-10T17:22:54.647Z,98522.06
2022-08-10T17:25:02.036Z,98519.38
2022-08-10T17:28:04.124Z,98528.47
2022-08-10T17:29:58.229Z,98527.41
2022-08-10T17:31:59.747Z,98531.16
2022-08-10T17:34:11.453Z,98530.13
2022-08-10T17:36:17.631Z,98532.19
2022-08-10T17:38:22.785Z,98519.13
2022-08-10T17:40:27.814Z,98517.28
2022-08-10T17:42:31.919Z,98521.00
2022-08-10T17:44:36.609Z,98520.59
2022-08-10T17:46:41.155Z,98525.13
2022-08-10T17:48:45.930Z,98519.34
2022-08-10T17:50:50.614Z,98525.72
2022-08-10T17:52:59.840Z,98518.28
2022-08-10T17:55:06.232Z,98524.91
2022-08-10T17:57:12.408Z,98528.03
2022-08-10T17:59:17.045Z,98522.84
2022-08-10T18:01:41.747Z,98525.13
2022-08-10T18:03:51.967Z,98528.63
2022-08-10T18:05:57.661Z,98529.66
2022-08-10T18:08:03.502Z,98521.41
2022-08-10T18:10:11.087Z,98535.22
2022-08-10T18:12:18.512Z,98532.09
2022-08-10T18:14:22.852Z,98533.56
2022-08-10T18:16:28.351Z,98531.28
2022-08-10T18:18:34.075Z,98529.97
2022-08-10T18:20:38.719Z,98536.81
2022-08-10T18:22:45.600Z,98542.34
2022-08-10T18:24:50.620Z,98540.25
2022-08-10T18:26:55.057Z,98534.47
2022-08-10T18:28:58.459Z,98535.50
2022-08-10T18:31:02.787Z,98540.44
2022-08-10T18:33:10.381Z,98553.44
2022-08-10T18:35:14.083Z,98548.47
2022-08-10T18:37:20.584Z,98550.91
2022-08-10T18:39:26.137Z,98548.22
2022-08-10T18:41:38.600Z,98545.91
2022-08-10T18:44:11.616Z,98550.75
2022-08-10T18:46:22.005Z,98552.41
2022-08-10T18:48:28.105Z,98555.41
2022-08-10T18:50:33.186Z,98550.88
2022-08-10T18:52:38.359Z,98561.81
2022-08-10T18:54:45.745Z,98558.03
2022-08-10T18:56:57.528Z,98560.88
2022-08-10T18:59:10.087Z,98558.72
2022-08-10T19:01:21.513Z,98562.38
2022-08-10T19:03:54.644Z,98565.56
2022-08-10T19:06:13.337Z,98564.25
2022-08-10T19:09:09.569Z,98570.31
2022-08-10T19:11:46.675Z,98569.75
2022-08-10T19:13:59.818Z,98579.09
2022-08-10T19:16:15.157Z,98583.75
2022-08-10T19:18:24.848Z,98576.84
2022-08-10T19:20:35.363Z,98573.25
2022-08-10T19:22:47.689Z,98573.19
2022-08-10T19:24:58.261Z,98576.81
2022-08-10T19:27:11.602Z,98583.53
2022-08-10T19:30:01.057Z,98581.00
2022-08-10T19:31:59.258Z,98566.06
2022-08-10T19:34:11.733Z,98577.84
2022-08-10T19:36:19.696Z,98583.94
2022-08-10T19:38:33.176Z,98577.31
2022-08-10T19:40:44.290Z,98578.25
2022-08-10T19:42:54.204Z,98580.81
2022-08-10T19:45:05.936Z,98587.38
2022-08-10T19:47:15.676Z,98580.47
2022-08-10T19:49:24.231Z,98582.00
2022-08-10T19:51:31.234Z,98579.44
2022-08-10T19:53:41.518Z,98579.16
2022-08-10T19:55:51.146Z,98581.16
2022-08-10T19:57:58.414Z,98587.72
2022-08-10T20:00:18.905Z,98582.94
2022-08-10T20:02:28.302Z,98586.28
2022-08-10T20:04:33.111Z,98593.00
2022-08-10T20:06:44.236Z,98586.38
2022-08-10T20:08:53.406Z,98587.28
2022-08-10T20:11:02.350Z,98590.84
2022-08-10T20:13:11.684Z,98590.53
2022-08-10T20:15:24.338Z,98585.94
2022-08-10T20:17:51.106Z,98589.13
2022-08-10T20:20:00.231Z,98593.81
2022-08-10T20:22:06.672Z,98592.03
2022-08-10T20:24:12.119Z,98597.75
2022-08-10T20:26:19.657Z,98590.75
2022-08-10T20:28:35.501Z,98593.63
2022-08-10T20:30:49.620Z,98598.81
2022-08-10T20:32:57.743Z,98589.00
2022-08-10T20:35:11.117Z,98596.53
2022-08-10T20:37:24.885Z,98596.41
2022-08-10T20:39:47.881Z,98600.59
2022-08-10T20:41:58.970Z,98589.28
2022-08-10T20:44:09.037Z,98589.00
2022-08-10T20:46:21.331Z,98592.53
2022-08-10T20:48:28.145Z,98589.72
2022-08-10T20:50:36.893Z,98599.09
2022-08-10T20:52:41.563Z,98590.78
2022-08-10T20:54:48.362Z,98591.97
2022-08-10T20:57:01.989Z,98587.81
2022-08-10T20:59:17.671Z,98595.97
2022-08-10T21:02:07.499Z,98591.50
2022-08-10T21:04:01.577Z,98582.34
2022-08-10T21:06:12.676Z,98591.69
2022-08-10T21:08:18.638Z,98575.53
2022-08-10T21:10:39.244Z,98584.03
2022-08-10T21:12:51.076Z,98578.69
2022-08-10T21:14:59.381Z,98581.38
2022-08-10T21:17:14.014Z,98584.84
2022-08-10T21:19:32.359Z,98584.69
2022-08-10T21:21:58.912Z,98598.16
2022-08-10T21:24:05.444Z,98598.53
2022-08-10T21:26:11.697Z,98599.03
2022-08-10T21:28:40.638Z,98597.50
2022-08-10T21:31:10.425Z,98590.22
2022-08-10T21:33:17.593Z,98595.88
2022-08-10T21:35:37.713Z,98598.53
2022-08-10T21:37:56.644Z,98597.06
2022-08-10T21:40:35.546Z,98599.22
2022-08-10T21:43:05.014Z,98606.41
2022-08-10T21:45:58.393Z,98596.75
2022-08-10T21:48:30.262Z,98594.75
2022-08-10T21:51:00.028Z,98600.47
2022-08-10T21:53:44.797Z,98599.94
2022-08-10T21:56:14.333Z,98594.31
2022-08-10T21:58:36.963Z,98597.16
2022-08-10T22:01:02.314Z,98592.34
2022-08-10T22:03:23.564Z,98592.53
2022-08-10T22:05:47.815Z,98584.22
2022-08-10T22:08:14.999Z,98584.53
2022-08-10T22:10:39.561Z,98585.06
2022-08-10T22:13:03.261Z,98587.41
2022-08-10T22:16:03.990Z,98582.25
2022-08-10T22:18:15.645Z,98583.41
2022-08-10T22:20:54.185Z,98591.91
2022-08-10T22:23:29.472Z,98588.56
2022-08-10T22:26:08.859Z,98587.72
2022-08-10T22:28:33.973Z,98584.09
2022-08-10T22:31:26.877Z,98583.22
2022-08-10T22:33:50.862Z,98587.59
2022-08-10T22:36:24.206Z,98587.75
2022-08-10T22:39:02.190Z,98587.41
2022-08-10T22:41:28.022Z,98592.75
2022-08-10T22:43:51.114Z,98582.44
2022-08-10T22:46:13.935Z,98586.06
2022-08-10T22:48:34.514Z,98588.75
2022-08-10T22:50:42.503Z,98591.91
2022-08-10T22:53:03.093Z,98585.75
2022-08-10T22:55:34.596Z,98583.91
2022-08-10T22:58:02.979Z,98588.41
2022-08-10T23:00:15.240Z,98588.91
2022-08-10T23:02:33.316Z,98587.09
2022-08-10T23:04:44.776Z,98582.09
2022-08-10T23:06:55.914Z,98578.09
2022-08-10T23:09:01.477Z,98581.44
2022-08-10T23:11:08.772Z,98580.09
2022-08-10T23:13:14.643Z,98573.97
2022-08-10T23:15:57.082Z,98582.09
2022-08-10T23:18:18.681Z,98578.78
2022-08-10T23:20:22.805Z,98579.78
2022-08-10T23:22:33.477Z,98582.59
2022-08-10T23:24:40.809Z,98576.47
2022-08-10T23:26:45.801Z,98579.13
2022-08-10T23:28:58.361Z,98574.63
2022-08-10T23:31:11.214Z,98579.13
2022-08-10T23:33:15.827Z,98583.25
2022-08-10T23:36:30.233Z,98580.28
2022-08-10T23:38:12.047Z,98581.44
2022-08-10T23:40:16.740Z,98580.59
2022-08-10T23:42:22.630Z,98585.09
2022-08-10T23:44:26.741Z,98582.63
2022-08-10T23:46:33.384Z,98583.75
2022-08-10T23:48:38.464Z,98573.47
2022-08-10T23:50:41.544Z,98576.28
2022-08-10T23:53:03.808Z,98579.09
2022-08-10T23:55:24.775Z,98577.59
2022-08-10T23:57:29.586Z,98579.44
2022-08-10T23:59:33.365Z,98580.44
